createdAt,value
2018-12-09T00:00:54.764Z,99185.13
2018-12-09T00:04:19.637Z,99187.39
2018-12-09T00:07:44.384Z,99187.29
2018-12-09T00:11:09.227Z,99188.66
2018-12-09T00:14:33.988Z,99202.73
2018-12-09T00:17:58.685Z,99203.06
2018-12-09T00:21:23.412Z,99185.73
2018-12-09T00:24:48.101Z,99176.46
2018-12-09T00:28:12.765Z,99173.63
2018-12-09T00:31:37.436Z,99173.33
2018-12-09T00:35:02.115Z,99187.59
2018-12-09T00:38:26.835Z,99190.06
2018-12-09T00:41:51.484Z,99187.77
2018-12-09T00:45:16.180Z,99193.75
2018-12-09T00:48:40.810Z,99209.82
2018-12-09T00:52:05.555Z,99243.32
2018-12-09T00:55:30.535Z,99243.78
2018-12-09T00:58:55.280Z,99221.64
2018-12-09T01:02:19.966Z,99228.99
2018-12-09T01:05:45.186Z,99226.98
2018-12-09T01:09:10.042Z,99214.44
2018-12-09T01:12:34.775Z,99233.28
2018-12-09T01:15:59.589Z,99239.47
2018-12-09T01:19:24.245Z,99232.81
2018-12-09T01:22:48.942Z,99235.40
2018-12-09T01:26:13.746Z,99247.98
2018-12-09T01:29:38.889Z,99215.13
2018-12-09T01:33:03.562Z,99244.59
2018-12-09T01:36:28.260Z,99251.12
2018-12-09T01:39:52.977Z,99247.56
2018-12-09T01:43:17.655Z,99252.72
2018-12-09T01:46:42.457Z,99258.53
2018-12-09T01:50:07.482Z,99257.20
2018-12-09T01:54:35.212Z,99261.28
2018-12-09T01:57:59.911Z,99269.69
2018-12-09T02:01:24.617Z,99259.75
2018-12-09T02:04:49.337Z,99264.88
2018-12-09T02:08:14.032Z,99281.22
2018-12-09T02:11:38.781Z,99283.41
2018-12-09T02:15:03.503Z,99270.84
2018-12-09T02:18:28.184Z,99259.09
2018-12-09T02:21:52.893Z,99267.09
2018-12-09T02:25:17.828Z,99268.49
2018-12-09T02:28:43.007Z,99278.27
2018-12-09T02:32:07.724Z,99290.33
2018-12-09T02:39:15.943Z,99284.70
2018-12-09T02:42:41.553Z,99287.89
2018-12-09T02:46:06.288Z,99287.98
2018-12-09T02:49:31.002Z,99291.92
2018-12-09T02:52:55.721Z,99272.39
2018-12-09T02:56:20.430Z,99288.72
2018-12-09T02:59:45.457Z,99285.34
2018-12-09T03:03:10.361Z,99270.55
2018-12-09T03:06:35.065Z,99281.66
2018-12-09T03:09:59.791Z,99276.30
2018-12-09T03:13:24.456Z,99274.33
2018-12-09T03:16:49.295Z,99291.00
2018-12-09T03:20:14.160Z,99288.53
2018-12-09T03:23:38.828Z,99281.56
2018-12-09T03:27:03.525Z,99287.59
2018-12-09T03:30:28.199Z,99302.03
2018-12-09T03:33:52.866Z,99289.94
2018-12-09T03:37:17.558Z,99291.55
2018-12-09T03:40:42.288Z,99297.13
2018-12-09T03:44:07.007Z,99310.14
2018-12-09T03:47:31.783Z,99306.33
2018-12-09T03:50:56.522Z,99298.98
2018-12-09T03:54:21.155Z,99305.53
2018-12-09T03:57:45.832Z,99312.52
2018-12-09T04:01:10.910Z,99310.58
2018-12-09T04:04:35.878Z,99325.05
2018-12-09T04:08:00.538Z,99319.23
2018-12-09T04:11:25.192Z,99316.21
2018-12-09T04:14:49.851Z,99312.67
2018-12-09T04:18:14.544Z,99328.53
2018-12-09T04:21:39.238Z,99322.80
2018-12-09T04:25:04.124Z,99326.75
2018-12-09T04:28:28.807Z,99332.39
2018-12-09T04:31:53.487Z,99325.84
2018-12-09T04:35:18.197Z,99338.31
2018-12-09T04:38:42.893Z,99332.75
2018-12-09T04:42:07.530Z,99350.61
2018-12-09T04:45:32.253Z,99326.56
2018-12-09T04:48:57.007Z,99347.92
2018-12-09T04:52:21.751Z,99343.79
2018-12-09T04:55:46.412Z,99360.96
2018-12-09T04:59:18.530Z,99356.39
2018-12-09T05:02:43.784Z,99367.94
2018-12-09T05:06:08.437Z,99353.39
2018-12-09T05:09:33.121Z,99361.84
2018-12-09T05:12:57.891Z,99366.72
2018-12-09T05:16:22.586Z,99371.94
2018-12-09T05:19:47.291Z,99368.33
2018-12-09T05:23:13.011Z,99370.46
2018-12-09T05:26:37.714Z,99378.84
2018-12-09T05:30:02.437Z,99374.39
2018-12-09T05:33:27.122Z,99366.36
2018-12-09T05:36:52.437Z,99380.26
2018-12-09T05:40:17.228Z,99380.35
2018-12-09T05:43:41.950Z,99386.19
2018-12-09T05:47:06.860Z,99390.15
2018-12-09T05:50:31.606Z,99402.53
2018-12-09T05:53:56.353Z,99404.86
2018-12-09T05:57:21.143Z,99400.92
2018-12-09T06:00:45.813Z,99398.91
2018-12-09T06:04:10.518Z,99406.75
2018-12-09T06:07:35.223Z,99409.27
2018-12-09T06:11:00.356Z,99430.72
2018-12-09T06:14:25.462Z,99436.88
2018-12-09T06:17:50.221Z,99424.27
2018-12-09T06:21:14.925Z,99429.73
2018-12-09T06:24:39.614Z,99439.73
2018-12-09T06:28:04.311Z,99440.29
2018-12-09T06:34:59.620Z,99436.85
2018-12-09T06:38:24.312Z,99439.41
2018-12-09T06:41:49.036Z,99454.78
2018-12-09T06:45:13.770Z,99441.30
2018-12-09T06:48:38.659Z,99451.56
2018-12-09T06:52:03.424Z,99456.12
2018-12-09T06:55:28.214Z,99456.84
2018-12-09T06:58:52.919Z,99466.35
2018-12-09T07:02:17.655Z,99462.83
2018-12-09T07:05:42.365Z,99471.30
2018-12-09T07:09:08.249Z,99468.80
2018-12-09T07:12:34.160Z,99477.86
2018-12-09T07:15:58.987Z,99485.56
2018-12-09T07:19:23.801Z,99503.30
2018-12-09T07:22:48.552Z,99493.98
2018-12-09T07:26:13.419Z,99517.21
2018-12-09T07:29:38.448Z,99521.25
2018-12-09T07:33:03.678Z,99525.06
2018-12-09T07:36:29.074Z,99532.98
2018-12-09T07:39:53.774Z,99536.03
2018-12-09T07:43:18.610Z,99540.80
2018-12-09T07:46:43.432Z,99555.38
2018-12-09T07:50:08.545Z,99560.37
2018-12-09T07:53:33.344Z,99552.17
2018-12-09T07:56:58.395Z,99563.00
2018-12-09T08:00:23.506Z,99574.64
2018-12-09T08:03:48.779Z,99587.48
2018-12-09T08:07:14.471Z,99578.34
2018-12-09T08:10:42.243Z,99579.55
2018-12-09T08:14:09.442Z,99607.16
2018-12-09T08:17:34.161Z,99593.97
2018-12-09T08:20:58.914Z,99606.05
2018-12-09T08:24:23.663Z,99609.84
2018-12-09T08:27:48.363Z,99617.12
2018-12-09T08:31:13.608Z,99615.19
2018-12-09T08:34:39.139Z,99630.84
2018-12-09T08:38:10.079Z,99618.98
2018-12-09T08:41:35.657Z,99632.20
2018-12-09T08:45:01.159Z,99625.48
2018-12-09T08:48:26.378Z,99635.73
2018-12-09T08:51:51.623Z,99629.16
2018-12-09T08:55:16.326Z,99639.17
2018-12-09T08:58:40.979Z,99632.34
2018-12-09T09:02:05.851Z,99632.09
2018-12-09T09:05:30.621Z,99664.36
2018-12-09T09:08:55.327Z,99645.91
2018-12-09T09:12:20.096Z,99652.76
2018-12-09T09:15:44.931Z,99659.22
2018-12-09T09:19:09.633Z,99654.91
2018-12-09T09:22:36.349Z,99660.20
2018-12-09T09:26:01.190Z,99670.05
2018-12-09T09:29:25.853Z,99663.60
2018-12-09T09:32:50.520Z,99665.78
2018-12-09T09:36:15.217Z,99674.22
2018-12-09T09:39:40.018Z,99676.06
2018-12-09T09:43:04.764Z,99682.47
2018-12-09T09:46:29.439Z,99694.13
2018-12-09T09:49:54.174Z,99703.77
2018-12-09T09:53:18.819Z,99695.72
2018-12-09T09:56:43.682Z,99696.05
2018-12-09T10:00:09.965Z,99702.28
2018-12-09T10:03:34.738Z,99708.38
2018-12-09T10:06:59.427Z,99706.41
2018-12-09T10:10:24.287Z,99708.78
2018-12-09T10:13:48.946Z,99714.42
2018-12-09T10:17:13.754Z,99706.66
2018-12-09T10:20:38.453Z,99716.50
2018-12-09T10:24:03.147Z,99716.91
2018-12-09T10:27:27.864Z,99722.56
2018-12-09T10:30:52.578Z,99722.63
2018-12-09T10:34:17.339Z,99717.14
2018-12-09T10:37:41.996Z,99715.59
2018-12-09T10:41:07.039Z,99721.33
2018-12-09T10:44:31.742Z,99726.02
2018-12-09T10:47:56.548Z,99718.94
2018-12-09T10:51:21.233Z,99721.59
2018-12-09T10:54:46.088Z,99714.66
2018-12-09T10:58:10.909Z,99719.44
2018-12-09T11:05:28.550Z,99720.58
2018-12-09T11:08:53.378Z,99728.72
2018-12-09T11:12:18.252Z,99743.05
2018-12-09T11:15:43.106Z,99785.56
2018-12-09T11:19:07.776Z,99795.62
2018-12-09T11:22:32.489Z,99792.72
2018-12-09T11:25:57.835Z,99792.59
2018-12-09T11:29:22.544Z,99806.20
2018-12-09T11:32:47.273Z,99806.25
2018-12-09T11:36:12.067Z,99804.55
2018-12-09T11:39:36.822Z,99808.34
2018-12-09T11:43:01.619Z,99809.63
2018-12-09T11:46:26.397Z,99808.24
2018-12-09T11:49:51.130Z,99818.75
2018-12-09T11:53:15.810Z,99809.05
2018-12-09T11:56:40.561Z,99813.14
2018-12-09T12:00:09.928Z,99804.59
2018-12-09T12:03:34.719Z,99821.02
2018-12-09T12:06:59.472Z,99818.42
2018-12-09T12:10:24.127Z,99829.71
2018-12-09T12:13:48.872Z,99838.59
2018-12-09T12:17:14.018Z,99829.21
2018-12-09T12:20:38.729Z,99833.73
2018-12-09T12:24:03.438Z,99847.45
2018-12-09T12:27:28.189Z,99852.55
2018-12-09T12:30:52.877Z,99863.86
2018-12-09T12:34:17.549Z,99872.89
2018-12-09T12:37:42.518Z,99874.55
2018-12-09T12:41:07.265Z,99883.05
2018-12-09T12:44:31.953Z,99898.72
2018-12-09T12:47:56.593Z,99898.89
2018-12-09T12:51:21.357Z,99902.24
2018-12-09T12:54:46.032Z,99909.41
2018-12-09T12:58:10.784Z,99916.19
2018-12-09T13:01:35.468Z,99913.58
2018-12-09T13:05:00.176Z,99928.05
2018-12-09T13:08:25.530Z,99928.92
2018-12-09T13:11:50.245Z,99941.70
2018-12-09T13:15:15.157Z,99949.88
2018-12-09T13:18:39.860Z,99960.02
2018-12-09T13:22:04.508Z,99963.11
2018-12-09T13:25:29.282Z,99980.50
2018-12-09T13:28:53.928Z,99979.64
2018-12-09T13:32:18.652Z,99988.21
2018-12-09T13:35:43.268Z,99990.14
2018-12-09T13:39:08.563Z,99999.10
2018-12-09T13:42:33.223Z,100002.78
2018-12-09T13:45:57.982Z,100017.12
2018-12-09T13:49:22.911Z,100020.45
2018-12-09T13:52:47.528Z,100036.08
2018-12-09T13:56:12.398Z,100045.91
2018-12-09T13:59:37.107Z,100051.81
2018-12-09T14:03:01.800Z,100059.84
2018-12-09T14:06:26.487Z,100071.70
2018-12-09T14:09:51.245Z,100086.13
2018-12-09T14:13:16.013Z,100092.98
2018-12-09T14:16:40.757Z,100098.16
2018-12-09T14:20:07.616Z,100108.84
2018-12-09T14:23:33.221Z,100120.59
2018-12-09T14:26:58.056Z,100122.70
2018-12-09T14:30:22.919Z,100127.73
2018-12-09T14:33:47.624Z,100136.44
2018-12-09T14:37:12.330Z,100144.27
2018-12-09T14:40:37.176Z,100154.81
2018-12-09T14:44:01.895Z,100173.63
2018-12-09T14:47:26.600Z,100179.05
2018-12-09T14:50:51.315Z,100182.28
2018-12-09T14:54:16.052Z,100199.52
2018-12-09T14:57:40.741Z,100206.68
2018-12-09T15:01:05.440Z,100214.41
2018-12-09T15:04:30.106Z,100225.86
2018-12-09T15:07:54.837Z,100235.08
2018-12-09T15:11:19.532Z,100241.39
2018-12-09T15:14:44.186Z,100254.52
2018-12-09T15:18:08.929Z,100260.39
2018-12-09T15:21:33.611Z,100276.00
2018-12-09T15:24:58.336Z,100280.91
2018-12-09T15:28:23.019Z,100297.01
2018-12-09T15:31:47.741Z,100299.23
2018-12-09T15:35:12.428Z,100308.82
2018-12-09T15:38:37.130Z,100320.45
2018-12-09T15:42:01.940Z,100330.22
2018-12-09T15:45:26.661Z,100344.94
2018-12-09T15:48:51.382Z,100370.83
2018-12-09T15:52:16.124Z,100381.85
2018-12-09T15:55:40.859Z,100381.30
2018-12-09T15:59:05.589Z,100386.77
2018-12-09T16:02:30.294Z,100394.83
2018-12-09T16:05:55.011Z,100405.73
2018-12-09T16:09:19.709Z,100411.30
2018-12-09T16:12:45.061Z,100416.21
2018-12-09T16:16:09.788Z,100427.82
2018-12-09T16:19:34.529Z,100440.62
2018-12-09T16:22:59.207Z,100460.50
2018-12-09T16:26:23.970Z,100466.30
2018-12-09T16:29:48.675Z,100472.05
2018-12-09T16:33:13.365Z,100476.95
2018-12-09T16:36:38.128Z,100495.35
2018-12-09T16:40:02.840Z,100500.22
2018-12-09T16:43:27.572Z,100509.34
2018-12-09T16:46:52.267Z,100520.38
2018-12-09T16:50:16.998Z,100533.64
2018-12-09T16:53:41.651Z,100537.54
2018-12-09T16:57:07.290Z,100544.64
2018-12-09T17:00:31.989Z,100554.91
2018-12-09T17:03:57.060Z,100562.08
2018-12-09T17:07:21.863Z,100570.84
2018-12-09T17:10:46.806Z,100587.14
2018-12-09T17:14:11.531Z,100594.44
2018-12-09T17:17:36.283Z,100602.63
2018-12-09T17:21:00.984Z,100617.41
2018-12-09T17:24:25.783Z,100617.24
2018-12-09T17:27:50.483Z,100629.70
2018-12-09T17:31:15.242Z,100640.84
2018-12-09T17:34:39.971Z,100646.75
2018-12-09T17:38:04.663Z,100657.80
2018-12-09T17:41:29.321Z,100672.70
2018-12-09T17:44:53.975Z,100677.77
2018-12-09T17:48:18.767Z,100686.23
2018-12-09T17:51:43.462Z,100692.35
2018-12-09T17:55:08.213Z,100724.86
2018-12-09T17:58:32.886Z,100724.34
2018-12-09T18:01:57.559Z,100745.09
2018-12-09T18:05:22.381Z,100735.41
2018-12-09T18:08:47.104Z,100748.52
2018-12-09T18:12:11.828Z,100747.88
2018-12-09T18:15:36.630Z,100757.64
2018-12-09T18:19:01.399Z,100769.77
2018-12-09T18:22:26.110Z,100773.96
2018-12-09T18:25:50.926Z,100789.96
2018-12-09T18:29:15.714Z,100794.83
2018-12-09T18:32:40.539Z,100818.12
2018-12-09T18:36:05.574Z,100828.73
2018-12-09T18:39:30.284Z,100829.94
2018-12-09T18:42:55.189Z,100840.05
2018-12-09T18:46:19.930Z,100854.41
2018-12-09T18:49:44.885Z,100855.70
2018-12-09T18:53:09.745Z,100866.59
2018-12-09T18:56:34.554Z,100862.52
2018-12-09T18:59:59.248Z,100870.99
2018-12-09T19:03:24.137Z,100888.55
2018-12-09T19:06:48.827Z,100892.92
2018-12-09T19:10:13.475Z,100894.23
2018-12-09T19:13:45.534Z,100908.32
2018-12-09T19:17:16.850Z,100920.89
2018-12-09T19:20:42.192Z,100920.03
2018-12-09T19:24:07.002Z,100937.27
2018-12-09T19:27:31.859Z,100949.56
2018-12-09T19:30:56.637Z,100955.48
2018-12-09T19:34:24.178Z,100962.23
2018-12-09T19:37:48.884Z,100968.44
2018-12-09T19:41:19.581Z,100972.30
2018-12-09T19:44:44.437Z,100973.25
2018-12-09T19:48:09.215Z,100980.69
2018-12-09T19:51:35.681Z,100984.06
2018-12-09T19:55:12.177Z,100996.14
2018-12-09T19:58:39.735Z,101004.84
2018-12-09T20:02:04.600Z,101007.91
2018-12-09T20:05:29.277Z,101004.41
2018-12-09T20:08:56.946Z,101017.61
2018-12-09T20:12:27.158Z,101016.88
2018-12-09T20:15:51.963Z,101021.47
2018-12-09T20:19:16.758Z,101031.89
2018-12-09T20:22:43.532Z,101034.58
2018-12-09T20:26:08.288Z,101034.80
2018-12-09T20:29:35.179Z,101043.23
2018-12-09T20:32:59.914Z,101050.77
2018-12-09T20:36:25.382Z,101059.91
2018-12-09T20:39:50.137Z,101060.13
2018-12-09T20:43:14.926Z,101054.80
2018-12-09T20:46:40.565Z,101066.94
2018-12-09T20:50:07.309Z,101081.68
2018-12-09T20:53:32.034Z,101085.25
2018-12-09T20:56:56.750Z,101083.69
2018-12-09T21:00:21.744Z,101094.97
2018-12-09T21:03:46.499Z,101091.83
2018-12-09T21:07:11.206Z,101104.05
2018-12-09T21:10:35.928Z,101109.81
2018-12-09T21:14:00.679Z,101123.78
2018-12-09T21:17:25.448Z,101125.08
2018-12-09T21:20:50.270Z,101117.63
2018-12-09T21:24:14.987Z,101120.37
2018-12-09T21:27:39.729Z,101143.22
2018-12-09T21:31:04.435Z,101142.27
2018-12-09T21:34:29.525Z,101144.95
2018-12-09T21:37:54.282Z,101146.00
2018-12-09T21:41:19.264Z,101147.02
2018-12-09T21:44:44.129Z,101157.16
2018-12-09T21:48:09.049Z,101164.81
2018-12-09T21:51:33.809Z,101165.79
2018-12-09T21:54:58.495Z,101176.44
2018-12-09T21:58:23.162Z,101184.33
2018-12-09T22:01:47.905Z,101182.99
2018-12-09T22:05:12.825Z,101193.64
2018-12-09T22:08:37.557Z,101187.64
2018-12-09T22:12:02.345Z,101193.69
2018-12-09T22:15:27.042Z,101203.03
2018-12-09T22:18:57.215Z,101215.69
2018-12-09T22:22:21.992Z,101224.45
2018-12-09T22:25:46.743Z,101234.53
2018-12-09T22:29:11.605Z,101248.16
2018-12-09T22:32:36.358Z,101257.66
2018-12-09T22:36:01.066Z,101258.83
2018-12-09T22:39:25.842Z,101270.73
2018-12-09T22:42:50.551Z,101263.94
2018-12-09T22:46:15.241Z,101273.09
2018-12-09T22:49:39.993Z,101282.72
2018-12-09T22:53:04.818Z,101296.83
2018-12-09T22:56:29.531Z,101301.33
2018-12-09T22:59:54.351Z,101305.63
2018-12-09T23:03:19.066Z,101315.88
2018-12-09T23:06:43.789Z,101308.16
2018-12-09T23:10:08.654Z,101315.73
2018-12-09T23:13:33.373Z,101320.75
2018-12-09T23:16:58.109Z,101327.95
2018-12-09T23:20:22.875Z,101339.80
2018-12-09T23:23:47.598Z,101335.77
2018-12-09T23:27:12.501Z,101341.47
2018-12-09T23:30:37.262Z,101351.87
2018-12-09T23:34:01.958Z,101358.78
2018-12-09T23:37:26.852Z,101349.44
2018-12-09T23:40:51.606Z,101351.21
2018-12-09T23:44:16.420Z,101358.24
2018-12-09T23:47:41.157Z,101358.97
2018-12-09T23:51:05.885Z,101372.01
2018-12-09T23:54:30.654Z,101375.59
2018-12-09T23:57:55.458Z,101382.05
